sensor_id;sensor_type;location;lat;lon;timestamp;P1;durP1;ratioP1;P2;durP2;ratioP2
72517;SDS011;60540;51.178;6.738;2022-12-16T00:00:32;38.25;;;14.88;;
72517;SDS011;60540;51.178;6.738;2022-12-16T00:03:18;36.58;;;15.02;;
72517;SDS011;60540;51.178;6.738;2022-12-16T00:05:44;32.53;;;15.00;;
72517;SDS011;60540;51.178;6.738;2022-12-16T00:08:09;32.90;;;14.43;;
72517;SDS011;60540;51.178;6.738;2022-12-16T00:10:35;34.05;;;15.32;;
72517;SDS011;60540;51.178;6.738;2022-12-16T00:13:17;34.22;;;12.93;;
72517;SDS011;60540;51.178;6.738;2022-12-16T00:15:43;31.08;;;14.57;;
72517;SDS011;60540;51.178;6.738;2022-12-16T00:18:10;31.95;;;13.50;;
72517;SDS011;60540;51.178;6.738;2022-12-16T00:20:42;30.80;;;15.05;;
72517;SDS011;60540;51.178;6.738;2022-12-16T00:23:14;30.35;;;14.52;;
72517;SDS011;60540;51.178;6.738;2022-12-16T00:25:43;34.63;;;13.85;;
72517;SDS011;60540;51.178;6.738;2022-12-16T00:28:10;30.13;;;14.48;;
72517;SDS011;60540;51.178;6.738;2022-12-16T00:30:36;32.75;;;14.23;;
72517;SDS011;60540;51.178;6.738;2022-12-16T00:33:02;32.05;;;14.45;;
72517;SDS011;60540;51.178;6.738;2022-12-16T00:35:29;30.33;;;14.15;;
72517;SDS011;60540;51.178;6.738;2022-12-16T00:37:54;31.55;;;14.00;;
72517;SDS011;60540;51.178;6.738;2022-12-16T00:40:21;36.38;;;16.42;;
72517;SDS011;60540;51.178;6.738;2022-12-16T00:42:46;38.22;;;15.05;;
72517;SDS011;60540;51.178;6.738;2022-12-16T00:45:12;36.70;;;16.42;;
72517;SDS011;60540;51.178;6.738;2022-12-16T00:47:37;37.03;;;15.15;;
72517;SDS011;60540;51.178;6.738;2022-12-16T00:50:03;38.10;;;14.98;;
72517;SDS011;60540;51.178;6.738;2022-12-16T00:52:29;41.30;;;17.40;;
72517;SDS011;60540;51.178;6.738;2022-12-16T00:54:55;38.30;;;16.17;;
72517;SDS011;60540;51.178;6.738;2022-12-16T00:57:21;37.22;;;14.88;;
72517;SDS011;60540;51.178;6.738;2022-12-16T00:59:46;39.20;;;16.02;;
72517;SDS011;60540;51.178;6.738;2022-12-16T01:02:12;41.78;;;16.40;;
72517;SDS011;60540;51.178;6.738;2022-12-16T01:04:38;35.92;;;18.33;;
72517;SDS011;60540;51.178;6.738;2022-12-16T01:07:03;36.97;;;17.73;;
72517;SDS011;60540;51.178;6.738;2022-12-16T01:09:29;35.83;;;15.25;;
72517;SDS011;60540;51.178;6.738;2022-12-16T01:11:54;38.42;;;16.27;;
72517;SDS011;60540;51.178;6.738;2022-12-16T01:14:20;34.78;;;16.52;;
72517;SDS011;60540;51.178;6.738;2022-12-16T01:16:46;42.92;;;15.48;;
72517;SDS011;60540;51.178;6.738;2022-12-16T01:19:12;33.33;;;14.95;;
72517;SDS011;60540;51.178;6.738;2022-12-16T01:21:37;38.17;;;17.17;;
72517;SDS011;60540;51.178;6.738;2022-12-16T01:24:03;34.75;;;15.57;;
72517;SDS011;60540;51.178;6.738;2022-12-16T01:26:29;40.10;;;16.05;;
72517;SDS011;60540;51.178;6.738;2022-12-16T01:28:56;36.42;;;15.02;;
72517;SDS011;60540;51.178;6.738;2022-12-16T01:31:22;34.25;;;14.88;;
72517;SDS011;60540;51.178;6.738;2022-12-16T01:33:48;32.83;;;15.20;;
72517;SDS011;60540;51.178;6.738;2022-12-16T01:36:15;35.25;;;14.43;;
72517;SDS011;60540;51.178;6.738;2022-12-16T01:38:41;33.95;;;14.90;;
72517;SDS011;60540;51.178;6.738;2022-12-16T01:41:08;27.40;;;13.75;;
72517;SDS011;60540;51.178;6.738;2022-12-16T01:43:36;35.67;;;16.30;;
72517;SDS011;60540;51.178;6.738;2022-12-16T01:51:52;34.25;;;16.25;;
72517;SDS011;60540;51.178;6.738;2022-12-16T01:54:09;32.13;;;14.93;;
72517;SDS011;60540;51.178;6.738;2022-12-16T01:56:45;40.08;;;16.30;;
72517;SDS011;60540;51.178;6.738;2022-12-16T01:59:15;37.95;;;15.98;;
72517;SDS011;60540;51.178;6.738;2022-12-16T02:01:41;33.72;;;14.98;;
72517;SDS011;60540;51.178;6.738;2022-12-16T02:04:07;39.20;;;16.40;;
72517;SDS011;60540;51.178;6.738;2022-12-16T02:06:33;36.67;;;18.17;;
72517;SDS011;60540;51.178;6.738;2022-12-16T02:08:59;35.45;;;13.55;;
72517;SDS011;60540;51.178;6.738;2022-12-16T02:11:40;32.97;;;14.10;;
72517;SDS011;60540;51.178;6.738;2022-12-16T02:16:54;33.88;;;16.38;;
72517;SDS011;60540;51.178;6.738;2022-12-16T02:27:49;39.78;;;17.20;;
72517;SDS011;60540;51.178;6.738;2022-12-16T02:35:44;34.45;;;14.82;;
72517;SDS011;60540;51.178;6.738;2022-12-16T02:38:24;35.30;;;16.70;;
72517;SDS011;60540;51.178;6.738;2022-12-16T02:40:56;35.45;;;15.02;;
72517;SDS011;60540;51.178;6.738;2022-12-16T02:46:08;35.30;;;14.88;;
72517;SDS011;60540;51.178;6.738;2022-12-16T02:52:33;36.95;;;15.77;;
72517;SDS011;60540;51.178;6.738;2022-12-16T02:55:00;43.08;;;15.90;;
72517;SDS011;60540;51.178;6.738;2022-12-16T02:58:11;43.83;;;16.02;;
72517;SDS011;60540;51.178;6.738;2022-12-16T03:00:23;31.08;;;14.10;;
72517;SDS011;60540;51.178;6.738;2022-12-16T03:02:54;43.10;;;17.15;;
72517;SDS011;60540;51.178;6.738;2022-12-16T03:05:27;38.33;;;16.15;;
72517;SDS011;60540;51.178;6.738;2022-12-16T03:07:58;34.85;;;16.35;;
72517;SDS011;60540;51.178;6.738;2022-12-16T03:10:28;37.20;;;15.85;;
72517;SDS011;60540;51.178;6.738;2022-12-16T03:12:57;40.78;;;16.02;;
72517;SDS011;60540;51.178;6.738;2022-12-16T03:15:24;45.38;;;17.35;;
72517;SDS011;60540;51.178;6.738;2022-12-16T03:17:51;34.20;;;15.63;;
72517;SDS011;60540;51.178;6.738;2022-12-16T03:20:23;33.67;;;16.10;;
72517;SDS011;60540;51.178;6.738;2022-12-16T03:22:53;39.08;;;16.23;;
72517;SDS011;60540;51.178;6.738;2022-12-16T03:25:20;34.25;;;15.75;;
72517;SDS011;60540;51.178;6.738;2022-12-16T03:27:54;39.42;;;14.70;;
72517;SDS011;60540;51.178;6.738;2022-12-16T03:30:27;36.28;;;14.48;;
72517;SDS011;60540;51.178;6.738;2022-12-16T03:33:18;32.08;;;14.60;;
72517;SDS011;60540;51.178;6.738;2022-12-16T03:35:53;28.75;;;13.52;;
72517;SDS011;60540;51.178;6.738;2022-12-16T03:38:22;37.35;;;14.80;;
72517;SDS011;60540;51.178;6.738;2022-12-16T03:40:48;39.72;;;15.25;;
72517;SDS011;60540;51.178;6.738;2022-12-16T03:43:14;39.05;;;15.38;;
72517;SDS011;60540;51.178;6.738;2022-12-16T03:45:41;34.92;;;15.55;;
72517;SDS011;60540;51.178;6.738;2022-12-16T03:48:09;37.80;;;15.60;;
72517;SDS011;60540;51.178;6.738;2022-12-16T03:50:36;30.30;;;14.02;;
72517;SDS011;60540;51.178;6.738;2022-12-16T03:53:02;32.85;;;14.90;;
72517;SDS011;60540;51.178;6.738;2022-12-16T03:55:28;35.28;;;14.63;;
72517;SDS011;60540;51.178;6.738;2022-12-16T03:57:53;33.28;;;14.00;;
72517;SDS011;60540;51.178;6.738;2022-12-16T04:00:20;39.75;;;17.02;;
72517;SDS011;60540;51.178;6.738;2022-12-16T04:02:46;37.35;;;17.92;;
72517;SDS011;60540;51.178;6.738;2022-12-16T04:05:11;31.08;;;16.38;;
72517;SDS011;60540;51.178;6.738;2022-12-16T04:07:37;38.78;;;15.40;;
72517;SDS011;60540;51.178;6.738;2022-12-16T04:10:03;33.03;;;13.95;;
72517;SDS011;60540;51.178;6.738;2022-12-16T04:12:30;33.22;;;14.50;;
72517;SDS011;60540;51.178;6.738;2022-12-16T04:15:14;47.63;;;17.95;;
72517;SDS011;60540;51.178;6.738;2022-12-16T04:17:58;40.13;;;17.33;;
72517;SDS011;60540;51.178;6.738;2022-12-16T04:20:43;37.75;;;16.13;;
72517;SDS011;60540;51.178;6.738;2022-12-16T04:23:29;37.50;;;16.92;;
72517;SDS011;60540;51.178;6.738;2022-12-16T04:26:14;39.05;;;16.63;;
72517;SDS011;60540;51.178;6.738;2022-12-16T04:28:40;44.00;;;15.82;;
72517;SDS011;60540;51.178;6.738;2022-12-16T04:31:06;35.08;;;15.80;;
72517;SDS011;60540;51.178;6.738;2022-12-16T04:33:32;42.50;;;16.63;;
72517;SDS011;60540;51.178;6.738;2022-12-16T04:36:16;33.28;;;14.82;;
72517;SDS011;60540;51.178;6.738;2022-12-16T04:39:00;44.75;;;16.70;;
72517;SDS011;60540;51.178;6.738;2022-12-16T04:41:45;32.47;;;17.00;;
72517;SDS011;60540;51.178;6.738;2022-12-16T04:44:29;40.75;;;17.90;;
72517;SDS011;60540;51.178;6.738;2022-12-16T04:47:13;38.42;;;18.35;;
72517;SDS011;60540;51.178;6.738;2022-12-16T04:49:58;40.50;;;18.65;;
72517;SDS011;60540;51.178;6.738;2022-12-16T04:52:42;41.40;;;16.88;;
72517;SDS011;60540;51.178;6.738;2022-12-16T04:55:26;32.67;;;15.30;;
72517;SDS011;60540;51.178;6.738;2022-12-16T04:58:10;38.88;;;15.68;;
72517;SDS011;60540;51.178;6.738;2022-12-16T05:00:55;37.03;;;16.17;;
72517;SDS011;60540;51.178;6.738;2022-12-16T05:03:39;33.90;;;14.07;;
72517;SDS011;60540;51.178;6.738;2022-12-16T05:06:23;33.60;;;14.63;;
72517;SDS011;60540;51.178;6.738;2022-12-16T05:09:07;30.40;;;14.00;;
72517;SDS011;60540;51.178;6.738;2022-12-16T05:11:51;30.38;;;14.95;;
72517;SDS011;60540;51.178;6.738;2022-12-16T05:14:36;29.23;;;14.27;;
72517;SDS011;60540;51.178;6.738;2022-12-16T05:17:20;31.13;;;14.25;;
72517;SDS011;60540;51.178;6.738;2022-12-16T05:20:05;32.03;;;14.02;;
72517;SDS011;60540;51.178;6.738;2022-12-16T05:22:49;38.65;;;16.20;;
72517;SDS011;60540;51.178;6.738;2022-12-16T05:25:34;38.13;;;17.75;;
72517;SDS011;60540;51.178;6.738;2022-12-16T05:28:18;39.25;;;15.82;;
72517;SDS011;60540;51.178;6.738;2022-12-16T05:31:03;43.28;;;16.13;;
72517;SDS011;60540;51.178;6.738;2022-12-16T05:33:47;32.40;;;15.50;;
72517;SDS011;60540;51.178;6.738;2022-12-16T05:36:32;37.03;;;15.45;;
72517;SDS011;60540;51.178;6.738;2022-12-16T05:39:16;36.10;;;13.80;;
72517;SDS011;60540;51.178;6.738;2022-12-16T05:42:00;39.25;;;16.45;;
72517;SDS011;60540;51.178;6.738;2022-12-16T05:44:44;38.53;;;16.17;;
72517;SDS011;60540;51.178;6.738;2022-12-16T05:47:28;37.50;;;16.50;;
72517;SDS011;60540;51.178;6.738;2022-12-16T05:50:12;39.35;;;17.00;;
72517;SDS011;60540;51.178;6.738;2022-12-16T05:52:57;37.10;;;14.68;;
72517;SDS011;60540;51.178;6.738;2022-12-16T05:55:41;41.65;;;15.40;;
72517;SDS011;60540;51.178;6.738;2022-12-16T05:58:26;39.28;;;14.38;;
72517;SDS011;60540;51.178;6.738;2022-12-16T06:01:11;46.83;;;17.90;;
72517;SDS011;60540;51.178;6.738;2022-12-16T06:03:56;34.75;;;15.55;;
72517;SDS011;60540;51.178;6.738;2022-12-16T06:06:40;34.95;;;13.63;;
72517;SDS011;60540;51.178;6.738;2022-12-16T06:09:25;37.72;;;17.10;;
72517;SDS011;60540;51.178;6.738;2022-12-16T06:12:09;35.33;;;17.25;;
72517;SDS011;60540;51.178;6.738;2022-12-16T06:14:53;35.85;;;16.33;;
72517;SDS011;60540;51.178;6.738;2022-12-16T06:17:48;35.97;;;14.05;;
72517;SDS011;60540;51.178;6.738;2022-12-16T06:20:33;35.40;;;14.90;;
72517;SDS011;60540;51.178;6.738;2022-12-16T06:23:17;34.78;;;14.90;;
72517;SDS011;60540;51.178;6.738;2022-12-16T06:28:53;34.22;;;13.90;;
72517;SDS011;60540;51.178;6.738;2022-12-16T06:31:37;36.38;;;16.88;;
72517;SDS011;60540;51.178;6.738;2022-12-16T06:34:22;39.25;;;13.82;;
72517;SDS011;60540;51.178;6.738;2022-12-16T06:37:06;35.47;;;14.63;;
72517;SDS011;60540;51.178;6.738;2022-12-16T06:39:50;36.67;;;15.45;;
72517;SDS011;60540;51.178;6.738;2022-12-16T06:42:37;41.33;;;16.30;;
72517;SDS011;60540;51.178;6.738;2022-12-16T06:45:22;38.83;;;16.70;;
72517;SDS011;60540;51.178;6.738;2022-12-16T06:48:07;31.45;;;14.65;;
72517;SDS011;60540;51.178;6.738;2022-12-16T06:50:51;39.20;;;17.83;;
72517;SDS011;60540;51.178;6.738;2022-12-16T06:53:35;36.35;;;16.10;;
72517;SDS011;60540;51.178;6.738;2022-12-16T06:56:20;36.83;;;17.00;;
72517;SDS011;60540;51.178;6.738;2022-12-16T06:59:04;34.65;;;14.70;;
72517;SDS011;60540;51.178;6.738;2022-12-16T07:01:48;30.40;;;14.55;;
72517;SDS011;60540;51.178;6.738;2022-12-16T07:04:32;42.97;;;16.65;;
72517;SDS011;60540;51.178;6.738;2022-12-16T07:07:16;32.35;;;14.45;;
72517;SDS011;60540;51.178;6.738;2022-12-16T07:10:01;25.73;;;13.50;;
72517;SDS011;60540;51.178;6.738;2022-12-16T07:12:45;31.85;;;14.70;;
72517;SDS011;60540;51.178;6.738;2022-12-16T07:15:29;33.63;;;16.25;;
72517;SDS011;60540;51.178;6.738;2022-12-16T07:18:13;45.05;;;17.20;;
72517;SDS011;60540;51.178;6.738;2022-12-16T07:20:57;29.33;;;14.50;;
72517;SDS011;60540;51.178;6.738;2022-12-16T07:23:42;34.80;;;14.95;;
72517;SDS011;60540;51.178;6.738;2022-12-16T07:26:26;36.47;;;17.02;;
72517;SDS011;60540;51.178;6.738;2022-12-16T07:29:10;33.35;;;14.98;;
72517;SDS011;60540;51.178;6.738;2022-12-16T07:31:54;38.92;;;16.85;;
72517;SDS011;60540;51.178;6.738;2022-12-16T07:34:38;32.45;;;14.45;;
72517;SDS011;60540;51.178;6.738;2022-12-16T07:37:22;38.42;;;15.85;;
72517;SDS011;60540;51.178;6.738;2022-12-16T07:40:07;31.17;;;13.27;;
72517;SDS011;60540;51.178;6.738;2022-12-16T07:42:51;42.45;;;16.30;;
72517;SDS011;60540;51.178;6.738;2022-12-16T07:45:36;30.83;;;16.45;;
72517;SDS011;60540;51.178;6.738;2022-12-16T07:48:20;32.55;;;14.50;;
72517;SDS011;60540;51.178;6.738;2022-12-16T07:51:04;29.15;;;14.57;;
72517;SDS011;60540;51.178;6.738;2022-12-16T07:53:49;33.42;;;14.95;;
72517;SDS011;60540;51.178;6.738;2022-12-16T07:56:33;40.78;;;14.40;;
72517;SDS011;60540;51.178;6.738;2022-12-16T07:59:17;34.05;;;14.93;;
72517;SDS011;60540;51.178;6.738;2022-12-16T08:02:01;37.40;;;13.07;;
72517;SDS011;60540;51.178;6.738;2022-12-16T08:05:05;44.05;;;18.33;;
72517;SDS011;60540;51.178;6.738;2022-12-16T08:07:49;33.40;;;14.95;;
72517;SDS011;60540;51.178;6.738;2022-12-16T08:10:33;32.15;;;14.75;;
72517;SDS011;60540;51.178;6.738;2022-12-16T08:13:17;28.42;;;13.63;;
72517;SDS011;60540;51.178;6.738;2022-12-16T08:16:01;32.17;;;13.27;;
72517;SDS011;60540;51.178;6.738;2022-12-16T08:18:46;28.35;;;11.82;;
72517;SDS011;60540;51.178;6.738;2022-12-16T08:21:30;41.65;;;17.73;;
72517;SDS011;60540;51.178;6.738;2022-12-16T08:24:14;35.33;;;14.45;;
72517;SDS011;60540;51.178;6.738;2022-12-16T08:26:58;29.15;;;15.80;;
72517;SDS011;60540;51.178;6.738;2022-12-16T08:29:42;31.42;;;14.80;;
72517;SDS011;60540;51.178;6.738;2022-12-16T08:32:27;37.05;;;15.05;;
72517;SDS011;60540;51.178;6.738;2022-12-16T08:35:11;36.55;;;15.60;;
72517;SDS011;60540;51.178;6.738;2022-12-16T08:37:55;39.58;;;15.82;;
72517;SDS011;60540;51.178;6.738;2022-12-16T08:40:40;37.05;;;15.07;;
72517;SDS011;60540;51.178;6.738;2022-12-16T08:43:26;38.28;;;15.82;;
72517;SDS011;60540;51.178;6.738;2022-12-16T08:46:10;32.65;;;15.77;;
72517;SDS011;60540;51.178;6.738;2022-12-16T08:48:54;40.65;;;15.88;;
72517;SDS011;60540;51.178;6.738;2022-12-16T08:51:38;33.60;;;16.48;;
72517;SDS011;60540;51.178;6.738;2022-12-16T08:54:23;34.35;;;14.60;;
72517;SDS011;60540;51.178;6.738;2022-12-16T08:57:07;36.30;;;14.95;;
72517;SDS011;60540;51.178;6.738;2022-12-16T08:59:51;33.55;;;16.08;;
72517;SDS011;60540;51.178;6.738;2022-12-16T09:02:35;41.17;;;15.88;;
72517;SDS011;60540;51.178;6.738;2022-12-16T09:05:19;33.85;;;15.63;;
72517;SDS011;60540;51.178;6.738;2022-12-16T09:08:03;27.85;;;12.60;;
72517;SDS011;60540;51.178;6.738;2022-12-16T09:10:48;37.42;;;15.85;;
72517;SDS011;60540;51.178;6.738;2022-12-16T09:13:32;44.20;;;17.70;;
72517;SDS011;60540;51.178;6.738;2022-12-16T09:16:16;35.28;;;15.88;;
72517;SDS011;60540;51.178;6.738;2022-12-16T09:19:00;39.80;;;14.73;;
72517;SDS011;60540;51.178;6.738;2022-12-16T09:21:45;32.83;;;14.55;;
72517;SDS011;60540;51.178;6.738;2022-12-16T09:24:29;28.38;;;13.23;;
72517;SDS011;60540;51.178;6.738;2022-12-16T09:27:13;29.20;;;14.90;;
72517;SDS011;60540;51.178;6.738;2022-12-16T09:29:57;31.17;;;14.18;;
72517;SDS011;60540;51.178;6.738;2022-12-16T09:32:42;36.65;;;18.50;;
72517;SDS011;60540;51.178;6.738;2022-12-16T09:35:26;33.78;;;14.75;;
72517;SDS011;60540;51.178;6.738;2022-12-16T09:38:11;37.90;;;16.55;;
72517;SDS011;60540;51.178;6.738;2022-12-16T09:40:55;33.85;;;15.30;;
72517;SDS011;60540;51.178;6.738;2022-12-16T09:46:49;35.38;;;16.42;;
72517;SDS011;60540;51.178;6.738;2022-12-16T09:49:51;42.67;;;17.58;;
72517;SDS011;60540;51.178;6.738;2022-12-16T09:52:40;38.50;;;16.50;;
72517;SDS011;60540;51.178;6.738;2022-12-16T09:55:37;50.22;;;17.55;;
72517;SDS011;60540;51.178;6.738;2022-12-16T09:58:27;40.17;;;16.08;;
72517;SDS011;60540;51.178;6.738;2022-12-16T10:01:13;45.33;;;15.93;;
72517;SDS011;60540;51.178;6.738;2022-12-16T10:03:58;49.28;;;18.63;;
72517;SDS011;60540;51.178;6.738;2022-12-16T10:06:46;38.97;;;16.55;;
72517;SDS011;60540;51.178;6.738;2022-12-16T10:12:48;40.42;;;16.58;;
72517;SDS011;60540;51.178;6.738;2022-12-16T10:19:10;37.88;;;15.57;;
72517;SDS011;60540;51.178;6.738;2022-12-16T10:22:03;36.17;;;15.48;;
72517;SDS011;60540;51.178;6.738;2022-12-16T10:27:58;45.28;;;17.42;;
72517;SDS011;60540;51.178;6.738;2022-12-16T10:30:45;48.45;;;16.88;;
72517;SDS011;60540;51.178;6.738;2022-12-16T10:33:29;42.70;;;17.10;;
72517;SDS011;60540;51.178;6.738;2022-12-16T10:36:18;42.95;;;15.98;;
72517;SDS011;60540;51.178;6.738;2022-12-16T10:39:06;47.92;;;15.85;;
72517;SDS011;60540;51.178;6.738;2022-12-16T10:42:00;48.22;;;17.15;;
72517;SDS011;60540;51.178;6.738;2022-12-16T10:44:49;46.35;;;17.55;;
72517;SDS011;60540;51.178;6.738;2022-12-16T10:47:36;41.92;;;17.98;;
72517;SDS011;60540;51.178;6.738;2022-12-16T10:50:20;50.45;;;19.35;;
72517;SDS011;60540;51.178;6.738;2022-12-16T10:59:21;45.88;;;18.98;;
72517;SDS011;60540;51.178;6.738;2022-12-16T11:04:57;56.03;;;19.23;;
72517;SDS011;60540;51.178;6.738;2022-12-16T11:10:30;53.72;;;18.42;;
72517;SDS011;60540;51.178;6.738;2022-12-16T11:16:18;53.53;;;19.70;;
72517;SDS011;60540;51.178;6.738;2022-12-16T11:19:02;47.35;;;17.52;;
72517;SDS011;60540;51.178;6.738;2022-12-16T11:21:48;47.92;;;16.63;;
72517;SDS011;60540;51.178;6.738;2022-12-16T11:24:32;47.40;;;17.52;;
72517;SDS011;60540;51.178;6.738;2022-12-16T11:30:25;52.10;;;16.83;;
72517;SDS011;60540;51.178;6.738;2022-12-16T11:33:23;47.17;;;18.75;;
72517;SDS011;60540;51.178;6.738;2022-12-16T11:36:10;49.03;;;16.95;;
72517;SDS011;60540;51.178;6.738;2022-12-16T11:38:57;47.63;;;17.45;;
72517;SDS011;60540;51.178;6.738;2022-12-16T11:41:42;47.33;;;17.98;;
72517;SDS011;60540;51.178;6.738;2022-12-16T11:44:32;46.70;;;18.75;;
72517;SDS011;60540;51.178;6.738;2022-12-16T11:47:28;52.80;;;17.85;;
72517;SDS011;60540;51.178;6.738;2022-12-16T11:50:20;54.60;;;18.58;;
72517;SDS011;60540;51.178;6.738;2022-12-16T11:53:06;51.13;;;18.08;;
72517;SDS011;60540;51.178;6.738;2022-12-16T11:56:19;48.63;;;18.15;;
72517;SDS011;60540;51.178;6.738;2022-12-16T12:05:27;63.40;;;19.67;;
72517;SDS011;60540;51.178;6.738;2022-12-16T12:11:29;51.15;;;18.85;;
72517;SDS011;60540;51.178;6.738;2022-12-16T12:22:53;58.35;;;18.30;;
72517;SDS011;60540;51.178;6.738;2022-12-16T12:31:41;50.35;;;18.63;;
72517;SDS011;60540;51.178;6.738;2022-12-16T12:40:47;51.70;;;18.80;;
72517;SDS011;60540;51.178;6.738;2022-12-16T12:44:00;59.80;;;18.95;;
72517;SDS011;60540;51.178;6.738;2022-12-16T12:46:59;56.60;;;18.08;;
72517;SDS011;60540;51.178;6.738;2022-12-16T12:55:42;55.55;;;19.17;;
72517;SDS011;60540;51.178;6.738;2022-12-16T12:58:31;56.92;;;17.73;;
72517;SDS011;60540;51.178;6.738;2022-12-16T13:01:17;56.08;;;18.10;;
72517;SDS011;60540;51.178;6.738;2022-12-16T13:04:06;53.90;;;17.92;;
72517;SDS011;60540;51.178;6.738;2022-12-16T13:06:54;50.72;;;17.40;;
72517;SDS011;60540;51.178;6.738;2022-12-16T13:09:38;40.85;;;13.32;;
72517;SDS011;60540;51.178;6.738;2022-12-16T13:12:23;36.67;;;11.52;;
72517;SDS011;60540;51.178;6.738;2022-12-16T13:15:18;38.47;;;12.82;;
72517;SDS011;60540;51.178;6.738;2022-12-16T13:21:03;37.72;;;12.02;;
72517;SDS011;60540;51.178;6.738;2022-12-16T13:24:27;36.50;;;12.95;;
72517;SDS011;60540;51.178;6.738;2022-12-16T13:33:04;31.90;;;10.93;;
72517;SDS011;60540;51.178;6.738;2022-12-16T13:35:54;41.45;;;13.95;;
72517;SDS011;60540;51.178;6.738;2022-12-16T13:38:49;37.17;;;13.40;;
72517;SDS011;60540;51.178;6.738;2022-12-16T13:47:34;51.10;;;14.32;;
72517;SDS011;60540;51.178;6.738;2022-12-16T13:50:44;38.25;;;14.13;;
72517;SDS011;60540;51.178;6.738;2022-12-16T13:53:31;38.15;;;13.10;;
72517;SDS011;60540;51.178;6.738;2022-12-16T13:56:22;44.97;;;15.55;;
72517;SDS011;60540;51.178;6.738;2022-12-16T13:59:13;39.28;;;14.65;;
72517;SDS011;60540;51.178;6.738;2022-12-16T14:02:01;37.85;;;13.60;;
72517;SDS011;60540;51.178;6.738;2022-12-16T14:05:02;35.22;;;12.90;;
72517;SDS011;60540;51.178;6.738;2022-12-16T14:07:47;40.35;;;14.25;;
72517;SDS011;60540;51.178;6.738;2022-12-16T14:10:34;33.55;;;12.95;;
72517;SDS011;60540;51.178;6.738;2022-12-16T14:19:33;34.75;;;12.35;;
72517;SDS011;60540;51.178;6.738;2022-12-16T14:25:37;37.20;;;11.57;;
72517;SDS011;60540;51.178;6.738;2022-12-16T14:28:27;40.33;;;14.57;;
72517;SDS011;60540;51.178;6.738;2022-12-16T14:34:14;35.10;;;12.38;;
72517;SDS011;60540;51.178;6.738;2022-12-16T14:37:15;40.63;;;12.73;;
72517;SDS011;60540;51.178;6.738;2022-12-16T14:40:14;39.55;;;14.23;;
72517;SDS011;60540;51.178;6.738;2022-12-16T14:45:47;38.88;;;11.93;;
72517;SDS011;60540;51.178;6.738;2022-12-16T14:48:36;35.22;;;11.57;;
72517;SDS011;60540;51.178;6.738;2022-12-16T15:02:53;39.03;;;12.90;;
72517;SDS011;60540;51.178;6.738;2022-12-16T15:05:39;35.05;;;11.32;;
72517;SDS011;60540;51.178;6.738;2022-12-16T15:08:25;64.72;;;23.75;;
72517;SDS011;60540;51.178;6.738;2022-12-16T15:11:10;91.97;;;33.42;;
72517;SDS011;60540;51.178;6.738;2022-12-16T15:13:57;52.75;;;16.95;;
72517;SDS011;60540;51.178;6.738;2022-12-16T15:16:43;40.25;;;13.80;;
72517;SDS011;60540;51.178;6.738;2022-12-16T15:19:31;40.05;;;14.07;;
72517;SDS011;60540;51.178;6.738;2022-12-16T15:22:24;40.25;;;14.38;;
72517;SDS011;60540;51.178;6.738;2022-12-16T15:25:19;37.13;;;13.05;;
72517;SDS011;60540;51.178;6.738;2022-12-16T15:28:21;37.40;;;13.23;;
72517;SDS011;60540;51.178;6.738;2022-12-16T15:31:14;41.72;;;12.77;;
72517;SDS011;60540;51.178;6.738;2022-12-16T15:34:46;37.25;;;12.50;;
72517;SDS011;60540;51.178;6.738;2022-12-16T15:37:20;44.95;;;12.63;;
72517;SDS011;60540;51.178;6.738;2022-12-16T15:40:19;38.75;;;13.68;;
72517;SDS011;60540;51.178;6.738;2022-12-16T15:46:22;47.22;;;14.07;;
72517;SDS011;60540;51.178;6.738;2022-12-16T16:01:20;41.97;;;14.77;;
72517;SDS011;60540;51.178;6.738;2022-12-16T16:04:22;40.53;;;12.70;;
72517;SDS011;60540;51.178;6.738;2022-12-16T16:07:21;59.15;;;19.60;;
72517;SDS011;60540;51.178;6.738;2022-12-16T16:10:16;58.05;;;23.40;;
72517;SDS011;60540;51.178;6.738;2022-12-16T16:13:02;50.65;;;16.10;;
72517;SDS011;60540;51.178;6.738;2022-12-16T16:15:46;43.78;;;14.98;;
72517;SDS011;60540;51.178;6.738;2022-12-16T16:18:31;43.60;;;15.13;;
72517;SDS011;60540;51.178;6.738;2022-12-16T16:21:15;40.22;;;14.15;;
72517;SDS011;60540;51.178;6.738;2022-12-16T16:24:00;49.35;;;14.73;;
72517;SDS011;60540;51.178;6.738;2022-12-16T16:26:44;40.30;;;15.02;;
72517;SDS011;60540;51.178;6.738;2022-12-16T16:29:28;47.17;;;14.60;;
72517;SDS011;60540;51.178;6.738;2022-12-16T16:32:12;46.13;;;13.55;;
72517;SDS011;60540;51.178;6.738;2022-12-16T16:34:56;40.60;;;15.45;;
72517;SDS011;60540;51.178;6.738;2022-12-16T16:37:40;36.03;;;12.82;;
72517;SDS011;60540;51.178;6.738;2022-12-16T16:40:30;42.63;;;13.88;;
72517;SDS011;60540;51.178;6.738;2022-12-16T16:43:16;45.50;;;14.35;;
72517;SDS011;60540;51.178;6.738;2022-12-16T16:46:01;45.85;;;15.65;;
72517;SDS011;60540;51.178;6.738;2022-12-16T16:48:45;48.05;;;14.88;;
72517;SDS011;60540;51.178;6.738;2022-12-16T16:51:30;48.17;;;16.00;;
72517;SDS011;60540;51.178;6.738;2022-12-16T16:54:14;50.53;;;15.43;;
72517;SDS011;60540;51.178;6.738;2022-12-16T16:57:01;42.42;;;16.30;;
72517;SDS011;60540;51.178;6.738;2022-12-16T16:59:45;40.00;;;15.35;;
72517;SDS011;60540;51.178;6.738;2022-12-16T17:02:30;45.50;;;16.08;;
72517;SDS011;60540;51.178;6.738;2022-12-16T17:05:14;55.00;;;17.90;;
72517;SDS011;60540;51.178;6.738;2022-12-16T17:07:59;52.10;;;15.05;;
72517;SDS011;60540;51.178;6.738;2022-12-16T17:10:43;45.08;;;15.95;;
72517;SDS011;60540;51.178;6.738;2022-12-16T17:13:27;40.60;;;15.18;;
72517;SDS011;60540;51.178;6.738;2022-12-16T17:16:12;44.78;;;15.88;;
72517;SDS011;60540;51.178;6.738;2022-12-16T17:18:56;55.10;;;17.60;;
72517;SDS011;60540;51.178;6.738;2022-12-16T17:21:41;54.78;;;16.55;;
72517;SDS011;60540;51.178;6.738;2022-12-16T17:24:25;48.95;;;15.77;;
72517;SDS011;60540;51.178;6.738;2022-12-16T17:27:16;51.85;;;16.73;;
72517;SDS011;60540;51.178;6.738;2022-12-16T17:30:04;46.65;;;15.32;;
72517;SDS011;60540;51.178;6.738;2022-12-16T17:32:52;49.58;;;17.02;;
72517;SDS011;60540;51.178;6.738;2022-12-16T17:35:37;47.05;;;15.45;;
72517;SDS011;60540;51.178;6.738;2022-12-16T17:38:21;38.50;;;15.75;;
72517;SDS011;60540;51.178;6.738;2022-12-16T17:41:06;56.80;;;19.67;;
72517;SDS011;60540;51.178;6.738;2022-12-16T17:43:51;51.28;;;17.27;;
72517;SDS011;60540;51.178;6.738;2022-12-16T17:46:36;62.13;;;19.52;;
72517;SDS011;60540;51.178;6.738;2022-12-16T17:49:20;55.97;;;20.20;;
72517;SDS011;60540;51.178;6.738;2022-12-16T17:52:04;59.17;;;17.77;;
72517;SDS011;60540;51.178;6.738;2022-12-16T17:54:48;51.63;;;17.75;;
72517;SDS011;60540;51.178;6.738;2022-12-16T17:57:32;61.10;;;18.08;;
72517;SDS011;60540;51.178;6.738;2022-12-16T18:00:16;59.63;;;19.05;;
72517;SDS011;60540;51.178;6.738;2022-12-16T18:03:01;50.22;;;18.80;;
72517;SDS011;60540;51.178;6.738;2022-12-16T18:05:45;55.50;;;18.52;;
72517;SDS011;60540;51.178;6.738;2022-12-16T18:08:30;55.75;;;19.17;;
72517;SDS011;60540;51.178;6.738;2022-12-16T18:11:15;52.85;;;19.02;;
72517;SDS011;60540;51.178;6.738;2022-12-16T18:14:00;54.20;;;19.95;;
72517;SDS011;60540;51.178;6.738;2022-12-16T18:16:44;48.13;;;19.60;;
72517;SDS011;60540;51.178;6.738;2022-12-16T18:19:28;52.17;;;21.23;;
72517;SDS011;60540;51.178;6.738;2022-12-16T18:22:14;58.65;;;21.92;;